createdAt,value
2022-11-12T00:01:21.888Z,7.60
2022-11-12T00:07:02.408Z,6.30
2022-11-12T00:12:43.762Z,7.37
2022-11-12T00:18:25.417Z,9.73
2022-11-12T00:24:06.863Z,6.90
2022-11-12T00:29:47.795Z,7.33
2022-11-12T00:35:29.679Z,7.33
2022-11-12T00:41:10.983Z,7.80
2022-11-12T00:46:51.695Z,9.17
2022-11-12T00:52:32.692Z,11.63
2022-11-12T00:58:13.275Z,8.60
2022-11-12T01:03:57.282Z,8.63
2022-11-12T01:09:38.206Z,9.50
2022-11-12T01:15:19.400Z,10.57
2022-11-12T01:21:04.675Z,13.27
2022-11-12T01:26:45.663Z,10.87
2022-11-12T01:32:27.943Z,6.83
2022-11-12T01:38:08.608Z,9.17
2022-11-12T01:44:18.060Z,8.60
2022-11-12T01:50:04.476Z,8.43
2022-11-12T01:55:45.347Z,10.70
2022-11-12T02:01:26.479Z,8.93
2022-11-12T02:07:08.725Z,9.13
2022-11-12T02:13:12.130Z,7.60
2022-11-12T02:18:53.291Z,8.80
2022-11-12T02:24:35.577Z,8.40
2022-11-12T02:30:16.330Z,6.40
2022-11-12T02:35:57.010Z,9.50
2022-11-12T02:41:38.111Z,8.57
2022-11-12T02:47:18.960Z,8.20
2022-11-12T02:52:59.722Z,9.83
2022-11-12T02:58:40.821Z,10.87
2022-11-12T03:04:21.639Z,8.13
2022-11-12T03:10:02.365Z,5.77
2022-11-12T03:15:43.168Z,8.67
2022-11-12T03:21:23.969Z,7.47
2022-11-12T03:27:04.942Z,6.37
2022-11-12T03:32:45.987Z,8.23
2022-11-12T03:38:27.090Z,5.87
2022-11-12T03:44:08.328Z,5.13
2022-11-12T03:49:49.100Z,7.67
2022-11-12T03:55:30.384Z,7.00
2022-11-12T04:01:11.495Z,6.60
2022-11-12T04:07:11.233Z,4.87
2022-11-12T04:13:10.618Z,5.93
2022-11-12T04:19:12.824Z,7.03
2022-11-12T04:25:12.242Z,4.53
2022-11-12T04:30:53.306Z,5.40
2022-11-12T04:36:34.375Z,5.47
2022-11-12T04:42:34.158Z,8.80
2022-11-12T04:48:15.233Z,6.53
2022-11-12T04:53:55.842Z,10.30
2022-11-12T04:59:36.466Z,9.57
2022-11-12T05:05:17.603Z,13.80
2022-11-12T05:10:58.766Z,12.37
2022-11-12T05:16:39.785Z,8.90
2022-11-12T05:22:40.735Z,10.43
2022-11-12T05:28:21.498Z,8.17
2022-11-12T05:34:02.465Z,5.73
2022-11-12T05:39:43.600Z,13.77
2022-11-12T05:45:24.505Z,5.33
2022-11-12T05:51:13.107Z,7.70
2022-11-12T05:56:54.598Z,10.87
2022-11-12T06:02:35.850Z,7.10
2022-11-12T06:08:17.114Z,10.50
2022-11-12T06:13:58.776Z,9.90
2022-11-12T06:19:39.459Z,13.27
2022-11-12T06:25:19.894Z,17.07
2022-11-12T06:31:00.715Z,12.97
2022-11-12T06:36:41.480Z,8.77
2022-11-12T06:42:23.091Z,11.80
2022-11-12T06:48:04.103Z,11.13
2022-11-12T06:53:45.302Z,15.63
2022-11-12T06:59:26.330Z,11.27
2022-11-12T07:05:07.336Z,10.57
2022-11-12T07:10:48.422Z,7.73
2022-11-12T07:16:29.270Z,8.90
2022-11-12T07:22:10.219Z,14.07
2022-11-12T07:27:52.811Z,20.73
2022-11-12T07:33:34.229Z,11.67
2022-11-12T07:39:15.142Z,13.90
2022-11-12T07:44:56.096Z,12.87
2022-11-12T07:50:36.802Z,8.43
2022-11-12T07:56:20.173Z,10.20
2022-11-12T08:02:01.267Z,10.27
2022-11-12T08:07:43.180Z,10.60
2022-11-12T08:13:24.484Z,6.87
2022-11-12T08:19:05.532Z,10.77
2022-11-12T08:24:46.700Z,13.00
2022-11-12T08:30:28.275Z,6.93
2022-11-12T08:36:11.487Z,11.63
2022-11-12T08:41:52.314Z,9.07
2022-11-12T08:47:33.273Z,15.30
2022-11-12T08:53:14.025Z,16.90
2022-11-12T08:58:54.851Z,11.23
2022-11-12T09:04:36.059Z,9.73
2022-11-12T09:10:17.076Z,11.30
2022-11-12T09:16:02.864Z,11.00
2022-11-12T09:21:43.927Z,16.93
2022-11-12T09:27:27.673Z,12.30
2022-11-12T09:33:08.791Z,14.83
2022-11-12T09:38:49.513Z,18.53
2022-11-12T09:44:36.626Z,17.53
2022-11-12T09:50:40.230Z,16.20
2022-11-12T09:56:24.223Z,18.13
2022-11-12T10:02:05.313Z,19.13
2022-11-12T10:08:05.914Z,21.13
2022-11-12T10:14:13.381Z,20.53
2022-11-12T10:20:21.199Z,26.17
2022-11-12T10:26:12.586Z,23.63
2022-11-12T10:31:53.645Z,29.13
2022-11-12T10:38:00.801Z,23.80
2022-11-12T10:43:54.123Z,29.63
2022-11-12T10:49:35.021Z,33.40
2022-11-12T10:55:19.453Z,27.37
2022-11-12T11:01:07.309Z,23.87
2022-11-12T11:06:48.412Z,26.37
2022-11-12T11:12:32.017Z,23.73
2022-11-12T11:18:14.307Z,19.67
2022-11-12T11:24:07.458Z,23.47
2022-11-12T11:29:55.866Z,19.10
2022-11-12T11:35:50.250Z,21.43
2022-11-12T11:42:05.649Z,23.10
2022-11-12T11:48:02.643Z,15.10
2022-11-12T11:54:06.475Z,18.40
2022-11-12T12:00:02.824Z,16.43
2022-11-12T12:05:59.022Z,20.27
2022-11-12T12:11:48.408Z,17.77
2022-11-12T12:18:03.973Z,14.23
2022-11-12T12:23:44.967Z,15.50
2022-11-12T12:29:37.299Z,15.10
2022-11-12T12:35:32.262Z,19.93
2022-11-12T12:41:30.114Z,13.07
2022-11-12T12:47:13.453Z,13.93
2022-11-12T12:53:15.696Z,16.73
2022-11-12T12:59:03.559Z,14.60
2022-11-12T13:04:56.820Z,17.10
2022-11-12T13:10:44.555Z,15.40
2022-11-12T13:17:01.630Z,13.17
2022-11-12T13:22:50.555Z,11.40
2022-11-12T13:28:31.402Z,11.47
2022-11-12T13:34:25.997Z,6.60
2022-11-12T13:40:13.447Z,7.20
2022-11-12T13:46:12.255Z,10.30
2022-11-12T13:51:56.741Z,7.73
2022-11-12T13:57:37.841Z,7.90
2022-11-12T14:03:19.521Z,6.50
2022-11-12T14:09:00.074Z,9.43
2022-11-12T14:15:13.753Z,14.47
2022-11-12T14:20:55.196Z,9.30
2022-11-12T14:26:41.419Z,5.57
2022-11-12T14:32:22.478Z,8.57
2022-11-12T14:38:09.240Z,8.90
2022-11-12T14:44:12.167Z,13.30
2022-11-12T14:49:53.953Z,11.33
2022-11-12T14:55:37.349Z,10.27
2022-11-12T15:07:28.197Z,11.93
2022-11-12T15:13:11.692Z,10.20
2022-11-12T15:19:24.480Z,9.17
2022-11-12T15:25:29.845Z,6.97
2022-11-12T15:31:20.434Z,4.17
2022-11-12T15:37:22.073Z,7.53
2022-11-12T15:43:03.575Z,11.23
2022-11-12T15:48:44.643Z,9.90
2022-11-12T15:54:25.981Z,7.43
2022-11-12T16:00:14.129Z,12.23
2022-11-12T16:05:54.821Z,6.47
2022-11-12T16:11:35.680Z,7.43
2022-11-12T16:17:18.098Z,7.20
2022-11-12T16:22:59.426Z,11.67
2022-11-12T16:28:40.524Z,6.70
2022-11-12T16:34:21.657Z,11.03
2022-11-12T16:40:05.843Z,17.13
2022-11-12T16:45:46.727Z,17.00
2022-11-12T16:51:27.613Z,17.40
2022-11-12T16:57:11.128Z,17.43
2022-11-12T17:02:53.532Z,13.30
2022-11-12T17:08:34.631Z,13.90
2022-11-12T17:14:16.544Z,14.07
2022-11-12T17:19:57.251Z,15.17
2022-11-12T17:25:38.095Z,13.30
2022-11-12T17:31:21.576Z,16.87
2022-11-12T17:37:02.647Z,14.93
2022-11-12T17:42:43.824Z,11.57
2022-11-12T17:48:25.032Z,11.87
2022-11-12T17:54:06.605Z,14.63
2022-11-12T17:59:47.571Z,19.37
2022-11-12T18:05:29.053Z,16.10
2022-11-12T18:11:11.847Z,21.37
2022-11-12T18:16:53.443Z,21.63
2022-11-12T18:22:34.271Z,19.13
2022-11-12T18:28:15.001Z,35.43
2022-11-12T18:33:56.615Z,43.40
2022-11-12T18:39:37.785Z,40.27
2022-11-12T18:45:18.950Z,62.97
2022-11-12T18:51:01.678Z,59.07
2022-11-12T18:56:42.818Z,59.90
2022-11-12T19:02:23.677Z,49.40
2022-11-12T19:08:04.237Z,53.87
2022-11-12T19:13:45.341Z,68.47
2022-11-12T19:19:26.060Z,56.10
2022-11-12T19:25:07.267Z,59.27
2022-11-12T19:30:49.129Z,55.83
2022-11-12T19:36:30.497Z,57.17
2022-11-12T19:42:11.929Z,52.10
2022-11-12T19:47:53.188Z,58.03
2022-11-12T19:53:36.555Z,59.53
2022-11-12T19:59:19.431Z,63.40
2022-11-12T20:05:01.237Z,67.73
2022-11-12T20:10:44.369Z,70.47
2022-11-12T20:16:26.035Z,86.93
2022-11-12T20:22:07.475Z,96.20
2022-11-12T20:27:48.841Z,145.53
2022-11-12T20:33:30.809Z,134.30
2022-11-12T20:39:12.191Z,152.40
2022-11-12T20:44:53.901Z,203.13
2022-11-12T20:50:37.094Z,200.97
2022-11-12T20:56:23.516Z,162.80
2022-11-12T21:02:04.648Z,125.07
2022-11-12T21:07:46.111Z,108.43
2022-11-12T21:13:27.992Z,106.57
2022-11-12T21:19:09.247Z,99.43
2022-11-12T21:24:50.164Z,154.70
2022-11-12T21:30:33.037Z,94.70
2022-11-12T21:36:16.587Z,142.23
2022-11-12T21:41:57.967Z,134.40
2022-11-12T21:47:39.450Z,143.00
2022-11-12T21:53:20.339Z,90.10
2022-11-12T21:59:04.234Z,86.40
2022-11-12T22:04:45.666Z,74.60
2022-11-12T22:10:26.812Z,64.10
2022-11-12T22:16:29.625Z,47.40
2022-11-12T22:22:10.826Z,42.40
2022-11-12T22:27:51.830Z,45.33
2022-11-12T22:33:32.784Z,42.83
2022-11-12T22:39:14.029Z,36.80
2022-11-12T22:44:55.278Z,37.40
2022-11-12T22:50:36.073Z,32.83
2022-11-12T22:56:17.414Z,38.77
2022-11-12T23:01:58.266Z,43.87
2022-11-12T23:07:39.297Z,34.53
2022-11-12T23:13:20.212Z,38.93
2022-11-12T23:19:01.052Z,32.83
2022-11-12T23:24:41.766Z,30.73
2022-11-12T23:30:22.889Z,29.87
2022-11-12T23:36:05.924Z,32.27
2022-11-12T23:41:46.952Z,33.77
2022-11-12T23:47:27.575Z,31.50
2022-11-12T23:53:08.511Z,28.87
2022-11-12T23:58:53.250Z,27.90
